Time;durP1;ratioP1;P1;durP2;ratioP2;P2;SDS_P1;SDS_P2;PMS_P1;PMS_P2;Temp;Humidity;BMP_temperature;BMP_pressure;BME280_temperature;BME280_humidity;BME280_pressure;Samples;Min_cycle;Max_cycle;Signal;HPM_P1;HPM_P2
2021/12/19 00:02:09;;;;;;;10.60;8.57;;;;;;;3.28;78.25;100190.03;5090361;28;20282;-57
2021/12/19 00:04:53;;;;;;;14.40;8.97;;;;;;;3.35;77.81;100195.53;5090244;28;20191;-57
2021/12/19 00:10:06;;;;;;;12.60;8.90;;;;;;;3.37;77.68;100195.63;5090557;28;20249;-57
2021/12/19 00:12:32;;;;;;;12.40;7.90;;;;;;;3.37;76.59;100182.94;5090353;28;20294;-57
2021/12/19 00:14:59;;;;;;;10.20;8.47;;;;;;;3.31;77.12;100187.66;5090310;28;20187;-56
2021/12/19 00:17:26;;;;;;;12.97;8.67;;;;;;;3.33;76.35;100192.03;5090139;28;20593;-56
2021/12/19 00:19:55;;;;;;;10.23;8.33;;;;;;;3.28;76.05;100190.03;5089925;28;20286;-57
2021/12/19 00:22:22;;;;;;;10.33;8.10;;;;;;;3.27;75.25;100185.75;5094347;28;20187;-56
2021/12/19 00:24:48;;;;;;;11.27;8.53;;;;;;;3.29;76.11;100177.44;5094354;28;20191;-56
2021/12/19 00:27:15;;;;;;;10.67;7.90;;;;;;;3.29;76.00;100176.53;5094062;28;20187;-56
2021/12/19 00:29:42;;;;;;;10.50;8.43;;;;;;;3.24;75.45;100175.41;5094046;28;20195;-56
2021/12/19 00:32:09;;;;;;;12.00;8.47;;;;;;;3.23;75.29;100166.94;5093658;28;20313;-56
2021/12/19 00:34:36;;;;;;;12.13;7.90;;;;;;;3.21;76.06;100165.97;5093725;28;20191;-56
2021/12/19 00:37:04;;;;;;;11.23;8.43;;;;;;;3.20;75.66;100163.31;5094102;28;20225;-56
2021/12/19 00:39:31;;;;;;;8.63;7.30;;;;;;;3.21;75.33;100168.50;5094247;28;20186;-56
2021/12/19 00:41:58;;;;;;;8.43;7.00;;;;;;;3.18;74.95;100168.34;5093778;28;20734;-56
2021/12/19 00:44:26;;;;;;;8.20;6.47;;;;;;;3.17;74.48;100163.16;5093724;28;20277;-56
2021/12/19 00:47:04;;;;;;;9.10;7.93;;;;;;;3.25;74.10;100155.19;5092501;28;20428;-56
2021/12/19 00:49:31;;;;;;;7.63;6.83;;;;;;;3.30;73.69;100145.25;5094070;28;20437;-56
2021/12/19 00:51:58;;;;;;;10.27;6.73;;;;;;;3.26;73.75;100138.28;5093962;28;20206;-56
2021/12/19 00:54:27;;;;;;;8.37;6.90;;;;;;;3.30;73.87;100155.41;5093773;28;20237;-57
2021/12/19 00:56:54;;;;;;;8.07;6.57;;;;;;;3.31;73.88;100141.94;5093289;28;20222;-57
2021/12/19 00:59:21;;;;;;;8.67;6.77;;;;;;;3.36;73.02;100146.50;5093503;28;20224;-56
2021/12/19 01:01:49;;;;;;;10.20;6.33;;;;;;;3.36;72.74;100148.16;5093562;28;20556;-56
2021/12/19 01:04:18;;;;;;;8.43;6.70;;;;;;;3.32;73.03;100148.78;5093407;28;20195;-56
2021/12/19 01:06:47;;;;;;;9.93;8.07;;;;;;;3.27;73.52;100145.13;5093112;28;20183;-56
2021/12/19 01:09:15;;;;;;;9.43;7.17;;;;;;;3.27;73.32;100138.34;5093176;28;20278;-56
2021/12/19 01:11:47;;;;;;;11.47;7.80;;;;;;;3.29;73.33;100141.00;5093309;28;20191;-56
2021/12/19 01:14:14;;;;;;;9.40;8.40;;;;;;;3.34;74.19;100130.31;5091976;28;20447;-56
2021/12/19 01:16:41;;;;;;;10.00;7.90;;;;;;;3.42;74.15;100138.31;5092897;28;20215;-56
2021/12/19 01:19:08;;;;;;;9.57;8.20;;;;;;;3.36;74.23;100126.16;5093004;28;20203;-56
2021/12/19 01:21:35;;;;;;;11.20;7.97;;;;;;;3.32;74.58;100134.44;5093033;28;20274;-57
2021/12/19 01:24:03;;;;;;;10.10;7.70;;;;;;;3.19;74.60;100118.41;5092712;28;20190;-57
2021/12/19 01:26:30;;;;;;;11.03;7.83;;;;;;;3.26;75.57;100129.00;5087945;28;20284;-57
2021/12/19 01:28:58;;;;;;;10.07;7.27;;;;;;;3.27;75.02;100119.72;5082998;28;20192;-56
2021/12/19 01:31:25;;;;;;;9.23;7.63;;;;;;;3.31;73.97;100114.00;5083167;28;20225;-56
2021/12/19 01:33:52;;;;;;;11.10;8.33;;;;;;;3.28;74.21;100118.91;5081684;28;20211;-57
2021/12/19 01:36:21;;;;;;;12.40;8.47;;;;;;;3.28;74.44;100111.31;5089830;28;20650;-56
2021/12/19 01:38:48;;;;;;;8.83;7.13;;;;;;;3.30;73.49;100114.78;5092590;28;20730;-56
2021/12/19 01:41:15;;;;;;;10.27;7.80;;;;;;;3.28;73.10;100109.66;5092733;28;20282;-56
2021/12/19 01:43:42;;;;;;;9.90;8.33;;;;;;;3.34;73.25;100106.56;5085085;28;20195;-57
2021/12/19 01:46:10;;;;;;;11.68;7.93;;;;;;;3.34;73.43;100104.91;5072300;28;20102;-56
2021/12/19 01:48:37;;;;;;;11.53;7.23;;;;;;;3.35;72.46;100106.63;5072356;28;20199;-57
2021/12/19 01:51:04;;;;;;;7.63;6.10;;;;;;;3.44;70.94;100103.72;5072257;28;20551;-57
2021/12/19 01:53:31;;;;;;;8.03;6.53;;;;;;;3.47;70.94;100106.44;5072158;28;20192;-56
2021/12/19 01:55:58;;;;;;;8.63;5.80;;;;;;;3.47;70.89;100099.69;5072091;28;20191;-56
2021/12/19 01:58:25;;;;;;;8.00;6.47;;;;;;;3.49;71.36;100092.13;5072375;28;20278;-56
2021/12/19 02:00:55;;;;;;;9.83;6.63;;;;;;;3.54;70.75;100093.28;5072125;28;20220;-56
2021/12/19 02:03:25;;;;;;;8.67;6.37;;;;;;;3.51;70.77;100091.47;5072144;28;20179;-56
2021/12/19 02:05:52;;;;;;;7.97;6.23;;;;;;;3.54;70.42;100088.19;5072086;28;20209;-56
2021/12/19 02:08:19;;;;;;;6.97;5.97;;;;;;;3.51;70.24;100080.41;5071980;28;20279;-56
2021/12/19 02:10:47;;;;;;;8.23;6.70;;;;;;;3.48;70.31;100083.66;5071640;28;20180;-56
2021/12/19 02:13:15;;;;;;;10.17;7.13;;;;;;;3.47;70.70;100084.44;5071690;28;20659;-56
2021/12/19 02:15:44;;;;;;;9.07;6.93;;;;;;;3.44;70.92;100079.19;5071819;28;20730;-56
2021/12/19 02:18:14;;;;;;;8.83;6.50;;;;;;;3.45;70.98;100080.09;5071801;28;20250;-56
2021/12/19 02:20:47;;;;;;;7.37;5.90;;;;;;;3.30;71.76;100080.13;5071651;28;20246;-56
2021/12/19 02:23:14;;;;;;;7.87;6.40;;;;;;;3.16;71.79;100042.94;5071486;28;20202;-56
2021/12/19 02:25:41;;;;;;;9.87;8.07;;;;;;;3.30;71.65;100064.00;5071866;28;20199;-56
2021/12/19 02:28:10;;;;;;;13.37;7.97;;;;;;;3.28;72.16;100075.75;5071670;28;20594;-56
2021/12/19 02:30:37;;;;;;;8.90;6.70;;;;;;;3.24;72.21;100068.78;5071371;28;20188;-60
2021/12/19 02:33:09;;;;;;;9.33;7.20;;;;;;;3.23;72.26;100056.88;5071117;28;20233;-60
2021/12/19 02:35:36;;;;;;;10.90;6.87;;;;;;;3.25;72.14;100051.06;5071481;28;20658;-61
2021/12/19 02:38:31;;;;;;;11.03;7.27;;;;;;;3.25;72.47;100051.06;5071136;28;20222;-60
2021/12/19 02:49:25;;;;;;;9.60;7.20;;;;;;;3.00;73.12;100022.63;5071069;28;20194;-60
2021/12/19 02:51:53;;;;;;;10.00;7.43;;;;;;;3.09;72.94;100028.19;5071067;28;20219;-60
2021/12/19 02:54:22;;;;;;;10.13;7.50;;;;;;;3.12;73.93;100032.56;5070926;28;20195;-60
2021/12/19 02:56:49;;;;;;;10.57;7.30;;;;;;;3.08;73.29;100028.97;5070788;28;20215;-60
2021/12/19 02:59:16;;;;;;;10.13;7.47;;;;;;;2.96;73.43;100008.03;5070772;28;20651;-60
2021/12/19 03:01:45;;;;;;;9.17;7.50;;;;;;;3.03;73.48;100020.25;5070769;28;20192;-60
2021/12/19 03:04:13;;;;;;;9.63;6.97;;;;;;;3.10;72.92;100024.88;5070770;28;20194;-56
2021/12/19 03:06:44;;;;;;;8.83;7.03;;;;;;;3.10;72.37;100018.94;5070617;28;20278;-56
2021/12/19 03:09:13;;;;;;;9.82;7.80;;;;;;;3.17;72.59;100024.41;5070063;28;20438;-56
2021/12/19 03:12:05;;;;;;;8.67;6.70;;;;;;;3.24;71.71;100029.00;5070672;28;20213;-56
2021/12/19 03:20:01;;;;;;;7.67;6.57;;;;;;;3.18;72.34;100023.63;5070816;28;20236;-56
2021/12/19 03:22:28;;;;;;;8.27;6.60;;;;;;;3.17;71.83;100023.53;5070675;28;20202;-56
2021/12/19 03:24:55;;;;;;;8.37;6.93;;;;;;;3.09;71.83;100022.25;5070772;28;20199;-56
2021/12/19 03:27:23;;;;;;;9.57;6.77;;;;;;;3.05;72.77;100021.19;5070640;28;20194;-56
2021/12/19 03:29:50;;;;;;;10.17;6.93;;;;;;;3.12;72.39;100030.03;5070718;28;20569;-56
2021/12/19 03:32:17;;;;;;;8.17;6.50;;;;;;;3.13;72.27;100024.16;5070642;28;20227;-56
2021/12/19 03:34:44;;;;;;;10.30;7.10;;;;;;;3.15;71.42;100017.50;5070657;28;20245;-56
2021/12/19 03:37:11;;;;;;;9.90;6.57;;;;;;;3.13;72.06;100011.47;5070249;28;20222;-56
2021/12/19 03:39:55;;;;;;;7.80;7.00;;;;;;;3.08;71.83;100006.13;5070357;28;20195;-56
2021/12/19 03:42:24;;;;;;;7.43;6.00;;;;;;;3.12;71.32;100009.72;5070227;28;20662;-56
2021/12/19 03:44:52;;;;;;;8.90;6.80;;;;;;;3.09;72.27;100002.81;5085042;28;20291;-56
2021/12/19 03:47:19;;;;;;;10.63;6.97;;;;;;;3.10;72.48;100003.69;5091008;28;20187;-56
2021/12/19 03:49:46;;;;;;;8.03;6.80;;;;;;;3.08;71.98;100007.81;5090886;28;20199;-56
2021/12/19 03:52:13;;;;;;;10.93;7.40;;;;;;;3.06;72.14;99999.22;5090507;28;20190;-56
2021/12/19 03:54:40;;;;;;;8.77;6.30;;;;;;;3.08;71.91;99995.13;5090283;28;20652;-56
2021/12/19 03:57:07;;;;;;;7.03;5.80;;;;;;;3.05;72.08;99994.97;5090483;28;20305;-56
2021/12/19 03:59:35;;;;;;;10.23;7.87;;;;;;;3.02;71.71;99985.53;5090401;28;20970;-56
2021/12/19 04:02:03;;;;;;;9.37;6.53;;;;;;;3.07;71.39;99984.09;5090195;28;20289;-56
2021/12/19 04:04:35;;;;;;;10.13;6.10;;;;;;;3.06;71.87;99982.34;5090268;28;20197;-56
2021/12/19 04:07:02;;;;;;;9.17;6.43;;;;;;;3.07;71.72;99983.22;5090033;28;20209;-56
2021/12/19 04:09:29;;;;;;;8.83;6.87;;;;;;;3.09;71.81;99991.78;5090415;28;20199;-56
2021/12/19 04:11:56;;;;;;;7.07;6.27;;;;;;;3.15;70.64;99989.56;5094153;28;20664;-56
2021/12/19 04:14:23;;;;;;;7.63;5.93;;;;;;;3.12;71.44;99979.25;5110716;28;20201;-56
2021/12/19 04:16:51;;;;;;;7.17;6.03;;;;;;;3.11;71.12;99990.19;5110287;28;20292;-56
2021/12/19 04:19:20;;;;;;;7.93;6.60;;;;;;;3.19;71.26;99983.84;5110590;28;20273;-56
2021/12/19 04:21:47;;;;;;;7.17;6.27;;;;;;;3.16;70.81;99979.47;5110225;28;20190;-56
2021/12/19 04:24:14;;;;;;;7.47;6.13;;;;;;;3.14;70.74;99990.34;5110257;28;20661;-56
2021/12/19 04:26:41;;;;;;;6.53;5.57;;;;;;;3.12;70.47;99989.41;5110503;28;20277;-56
2021/12/19 04:29:08;;;;;;;6.47;5.77;;;;;;;3.11;71.13;99990.19;5110106;28;20675;-56
2021/12/19 04:31:35;;;;;;;9.15;7.13;;;;;;;3.17;70.48;99981.25;5109152;28;20833;-56
2021/12/19 04:34:04;;;;;;;9.30;6.40;;;;;;;3.19;70.28;100001.63;5110324;28;20186;-56
2021/12/19 04:36:35;;;;;;;8.07;5.73;;;;;;;3.19;70.18;99991.47;5110161;28;20281;-56
2021/12/19 04:39:23;;;;;;;7.47;6.30;;;;;;;3.17;70.11;99993.06;5110250;28;20645;-56
2021/12/19 04:53:12;;;;;;;7.20;6.30;;;;;;;3.01;70.70;99977.81;5110187;28;20680;-56
2021/12/19 04:56:18;;;;;;;7.23;5.97;;;;;;;3.01;70.91;99980.34;5110361;28;20655;-56
2021/12/19 04:59:09;;;;;;;7.50;6.00;;;;;;;2.98;70.96;99970.91;5110212;28;20201;-56
2021/12/19 05:04:37;;;;;;;7.40;5.80;;;;;;;2.87;71.32;99964.38;5109017;28;20205;-56
2021/12/19 05:15:15;;;;;;;9.13;6.27;;;;;;;2.72;72.51;99961.03;5113721;28;20615;-56
2021/12/19 05:17:42;;;;;;;10.63;6.93;;;;;;;2.67;72.61;99955.69;5113553;28;20218;-56
2021/12/19 05:20:15;;;;;;;7.87;6.43;;;;;;;2.72;72.78;99974.56;5113477;28;20190;-56
2021/12/19 05:22:48;;;;;;;8.20;6.33;;;;;;;2.69;72.98;99964.25;5113651;28;20232;-56
2021/12/19 05:25:17;;;;;;;10.27;7.43;;;;;;;2.64;72.86;99969.88;5113573;28;20209;-56
2021/12/19 05:27:45;;;;;;;7.57;6.57;;;;;;;2.66;73.01;99945.47;5113387;28;20630;-56
2021/12/19 05:30:13;;;;;;;8.80;6.83;;;;;;;2.67;72.63;99957.34;5113351;28;20201;-56
2021/12/19 05:32:41;;;;;;;7.53;5.97;;;;;;;2.61;72.45;99965.50;5113138;28;20229;-56
2021/12/19 05:35:10;;;;;;;7.97;6.43;;;;;;;2.60;72.59;99952.75;5113268;28;20684;-56
2021/12/19 05:45:57;;;;;;;7.70;6.40;;;;;;;2.59;72.23;99961.13;5092883;28;20251;-56
2021/12/19 05:48:24;;;;;;;8.03;7.23;;;;;;;2.54;72.40;99953.28;5092665;28;20183;-56
2021/12/19 05:50:51;;;;;;;7.47;6.20;;;;;;;2.60;72.24;99955.28;5092784;28;20197;-56
2021/12/19 05:53:18;;;;;;;9.85;7.60;;;;;;;2.69;72.21;99954.09;5091966;28;20436;-56
2021/12/19 05:55:47;;;;;;;8.67;6.97;;;;;;;2.74;71.79;99951.84;5092855;28;20187;-56
2021/12/19 05:58:14;;;;;;;8.77;7.40;;;;;;;2.75;71.82;99963.72;5092709;28;20225;-56
2021/12/19 06:00:41;;;;;;;9.33;6.80;;;;;;;2.67;71.75;99958.22;5092871;28;20195;-56
2021/12/19 06:03:08;;;;;;;9.57;6.70;;;;;;;2.72;71.32;99949.19;5092457;28;20199;-56
2021/12/19 06:05:35;;;;;;;7.40;6.67;;;;;;;2.68;71.94;99951.50;5092648;28;20187;-56
2021/12/19 06:08:02;;;;;;;10.17;7.27;;;;;;;2.70;71.79;99952.44;5092297;28;20191;-56
2021/12/19 06:10:29;;;;;;;8.40;6.60;;;;;;;2.77;70.88;99952.00;5092158;28;20191;-56
2021/12/19 06:12:59;;;;;;;9.37;5.53;;;;;;;2.81;70.54;99943.75;5092490;28;20206;-56
2021/12/19 06:15:26;;;;;;;8.17;6.00;;;;;;;2.83;70.57;99948.13;5092082;28;20187;-56
2021/12/19 06:17:53;;;;;;;7.33;5.87;;;;;;;2.91;70.23;99941.78;5091549;28;20305;-56
2021/12/19 06:20:21;;;;;;;5.53;5.03;;;;;;;3.01;69.89;99947.34;5091804;28;20290;-56
2021/12/19 06:22:48;;;;;;;7.13;6.13;;;;;;;3.05;68.82;99949.28;5092664;28;20226;-56
2021/12/19 06:25:15;;;;;;;8.40;5.60;;;;;;;3.07;69.26;99942.59;5112364;28;20277;-56
2021/12/19 06:27:43;;;;;;;6.70;5.77;;;;;;;3.17;69.45;99944.81;5111904;28;20186;-56
2021/12/19 06:30:12;;;;;;;6.60;5.80;;;;;;;3.28;68.63;99943.72;5112034;28;20281;-56
2021/12/19 06:32:39;;;;;;;7.90;5.90;;;;;;;3.25;68.58;99943.56;5111770;28;20714;-56
2021/12/19 06:35:11;;;;;;;8.40;6.10;;;;;;;3.34;68.26;99934.75;5112073;28;20344;-56
2021/12/19 06:37:39;;;;;;;7.40;5.77;;;;;;;3.44;67.80;99931.88;5112006;28;20288;-56
2021/12/19 06:40:08;;;;;;;6.10;5.33;;;;;;;3.49;66.49;99919.41;5112127;28;20194;-56
2021/12/19 06:42:35;;;;;;;6.30;5.23;;;;;;;3.52;66.84;99915.38;5111877;28;20200;-56
2021/12/19 06:45:02;;;;;;;6.17;5.40;;;;;;;3.53;66.04;99921.31;5111948;28;20255;-56
2021/12/19 06:47:31;;;;;;;7.97;6.10;;;;;;;3.66;66.50;99913.53;5111837;28;20277;-56
2021/12/19 06:49:58;;;;;;;6.03;5.43;;;;;;;3.82;65.45;99907.53;5111884;28;20194;-56
2021/12/19 06:52:25;;;;;;;6.97;5.47;;;;;;;4.57;63.44;99908.66;5111616;28;20194;-56
2021/12/19 06:54:52;;;;;;;6.73;5.20;;;;;;;4.81;62.20;99910.59;5093403;28;20570;-55
2021/12/19 06:57:19;;;;;;;6.10;5.13;;;;;;;4.80;60.73;99906.28;5090241;28;20195;-56
2021/12/19 06:59:47;;;;;;;7.93;6.17;;;;;;;4.81;61.54;99900.41;5087944;28;20190;-56
2021/12/19 07:02:15;;;;;;;6.73;5.20;;;;;;;4.52;62.23;99905.03;5090357;28;20237;-55
2021/12/19 07:04:45;;;;;;;6.17;5.53;;;;;;;4.25;63.06;99901.19;5090984;28;20190;-55
2021/12/19 07:07:12;;;;;;;8.50;5.33;;;;;;;4.09;63.19;99901.25;5090987;28;20203;-56
2021/12/19 07:09:39;;;;;;;7.80;6.28;;;;;;;4.18;63.64;99902.56;5090187;28;20475;-55
2021/12/19 07:12:08;;;;;;;7.60;5.77;;;;;;;4.22;62.71;99895.94;5090754;28;20186;-56
2021/12/19 07:14:35;;;;;;;8.30;6.03;;;;;;;4.12;63.17;99903.94;5090635;28;20191;-56
2021/12/19 07:17:02;;;;;;;6.77;6.00;;;;;;;4.08;63.31;99904.59;5090416;28;20530;-56
2021/12/19 07:19:29;;;;;;;6.77;5.93;;;;;;;4.07;64.06;99900.28;5090586;28;20310;-56
2021/12/19 07:21:57;;;;;;;7.07;5.60;;;;;;;4.15;63.81;99902.41;5090855;28;20187;-56
2021/12/19 07:24:24;;;;;;;5.53;5.00;;;;;;;4.20;63.32;99906.84;5078367;28;20198;-56
2021/12/19 07:26:51;;;;;;;5.60;5.07;;;;;;;4.07;63.48;99898.63;5108789;28;20209;-56
2021/12/19 07:29:18;;;;;;;5.33;4.70;;;;;;;4.03;63.22;99911.13;5110533;28;20277;-55
2021/12/19 07:31:45;;;;;;;5.73;4.73;;;;;;;4.01;63.44;99903.41;5110355;28;20232;-56
2021/12/19 07:34:12;;;;;;;5.93;4.93;;;;;;;4.03;62.87;99911.13;5109782;28;20210;-56
2021/12/19 07:36:42;;;;;;;7.33;5.47;;;;;;;4.06;62.56;99906.19;5110766;28;20684;-56
2021/12/19 07:39:23;;;;;;;5.53;5.00;;;;;;;4.11;62.90;99902.19;5110554;28;20217;-57
2021/12/19 07:41:49;;;;;;;7.83;5.60;;;;;;;4.17;63.30;99889.78;5111327;28;20224;-56
2021/12/19 07:44:16;;;;;;;6.43;5.10;;;;;;;4.21;63.81;99891.66;5102479;28;20205;-56
2021/12/19 07:46:44;;;;;;;5.90;5.10;;;;;;;4.16;62.59;99894.00;5090636;28;21009;-56
2021/12/19 07:49:11;;;;;;;7.97;5.37;;;;;;;4.27;62.75;99901.25;5090445;28;20191;-56
2021/12/19 07:51:38;;;;;;;6.67;4.67;;;;;;;4.26;62.39;99886.81;5090393;28;20285;-56
2021/12/19 07:54:05;;;;;;;7.30;5.20;;;;;;;4.24;62.08;99890.94;5090503;28;20194;-56
2021/12/19 07:56:33;;;;;;;5.63;4.87;;;;;;;4.29;61.86;99889.47;5090456;28;21059;-56
2021/12/19 07:59:00;;;;;;;7.50;5.10;;;;;;;4.23;61.80;99887.50;5089972;28;20309;-56
2021/12/19 08:01:27;;;;;;;6.80;5.20;;;;;;;4.30;62.57;99886.13;5090144;28;20761;-55
2021/12/19 08:03:54;;;;;;;7.17;5.13;;;;;;;4.33;62.38;99876.97;5090336;28;20199;-56
2021/12/19 08:06:21;;;;;;;6.10;5.50;;;;;;;4.44;61.13;99874.94;5090032;28;20191;-56
2021/12/19 08:08:52;;;;;;;8.48;5.78;;;;;;;4.51;61.20;99861.69;5089681;28;20442;-56
2021/12/19 08:14:06;;;;;;;5.97;5.13;;;;;;;4.51;61.72;99859.13;5090333;28;20316;-55
2021/12/19 08:16:33;;;;;;;5.90;4.87;;;;;;;4.53;61.21;99860.09;5090016;28;20274;-56
2021/12/19 08:18:59;;;;;;;6.37;4.50;;;;;;;4.55;60.55;99853.41;5089858;28;20215;-56
2021/12/19 08:21:27;;;;;;;6.03;5.07;;;;;;;4.63;61.17;99854.63;5090402;28;20179;-57
2021/12/19 08:23:57;;;;;;;6.90;5.30;;;;;;;4.73;61.04;99846.59;5083709;28;20188;-58
2021/12/19 08:26:25;;;;;;;8.83;5.83;;;;;;;4.76;60.97;99841.63;5081331;28;20658;-56
2021/12/19 08:28:52;;;;;;;6.67;5.23;;;;;;;4.81;60.63;99841.84;5100381;28;20198;-57
2021/12/19 08:31:21;;;;;;;7.37;5.80;;;;;;;4.81;59.96;99840.16;5109831;28;20322;-56
2021/12/19 08:33:49;;;;;;;14.43;6.60;;;;;;;4.58;60.88;99801.00;5107173;28;20510;-56
2021/12/19 08:36:16;;;;;;;5.97;5.20;;;;;;;4.78;59.75;99832.38;5089475;28;20191;-57
2021/12/19 08:38:43;;;;;;;7.50;5.47;;;;;;;4.80;60.39;99820.63;5089847;28;20225;-57
2021/12/19 08:41:10;;;;;;;7.67;6.17;;;;;;;4.88;60.49;99824.38;5089755;28;20194;-57
2021/12/19 08:43:37;;;;;;;9.63;5.80;;;;;;;4.94;60.62;99808.50;5093385;28;20202;-56
2021/12/19 08:46:06;;;;;;;7.00;5.73;;;;;;;4.91;60.05;99818.53;5105107;28;20203;-56
2021/12/19 08:48:35;;;;;;;7.93;5.67;;;;;;;4.92;59.83;99812.63;5113919;28;20600;-56
2021/12/19 08:51:03;;;;;;;6.82;6.00;;;;;;;4.94;59.80;99816.13;5113816;28;20434;-56
2021/12/19 08:53:30;;;;;;;6.33;5.53;;;;;;;5.00;59.87;99812.16;5113502;28;20221;-57
2021/12/19 08:55:57;;;;;;;7.20;5.37;;;;;;;5.00;59.96;99808.75;5113634;28;20198;-56
2021/12/19 08:58:25;;;;;;;6.63;5.57;;;;;;;5.07;58.96;99795.47;5113468;28;20221;-57
2021/12/19 09:00:52;;;;;;;7.23;5.77;;;;;;;5.10;59.35;99799.03;5113107;28;20281;-57
2021/12/19 09:03:19;;;;;;;9.27;6.63;;;;;;;5.20;59.72;99796.06;5113355;28;20198;-57
2021/12/19 09:05:47;;;;;;;7.83;5.87;;;;;;;5.19;59.27;99761.19;5113161;28;20202;-57
2021/12/19 09:08:14;;;;;;;10.00;6.60;;;;;;;5.45;59.32;99791.97;5092725;28;20179;-56
2021/12/19 09:10:41;;;;;;;6.30;5.70;;;;;;;5.38;59.03;99778.97;5083379;28;20191;-56
2021/12/19 09:13:08;;;;;;;10.80;6.53;;;;;;;5.38;58.49;99778.97;5090990;28;20256;-57
2021/12/19 09:15:35;;;;;;;9.17;5.67;;;;;;;5.35;60.08;99768.69;5093187;28;20270;-56
2021/12/19 09:18:02;;;;;;;8.15;7.07;;;;;;;5.47;60.28;99752.13;5091597;28;20532;-56
2021/12/19 09:20:29;;;;;;;8.07;6.47;;;;;;;5.64;58.69;99761.31;5092714;28;20273;-56
2021/12/19 09:22:58;;;;;;;8.97;5.97;;;;;;;5.72;58.68;99758.25;5092652;28;20289;-56
2021/12/19 09:25:25;;;;;;;9.70;5.77;;;;;;;5.70;57.84;99757.34;5092885;28;20299;-58
2021/12/19 09:27:52;;;;;;;6.03;5.37;;;;;;;5.63;57.30;99739.22;5092855;28;20204;-56
2021/12/19 09:30:19;;;;;;;8.87;5.67;;;;;;;5.70;57.78;99741.19;5092675;28;20191;-63
2021/12/19 09:32:47;;;;;;;6.23;5.57;;;;;;;5.67;58.24;99731.75;5092541;28;20234;-62
2021/12/19 09:35:16;;;;;;;8.83;6.50;;;;;;;5.71;58.32;99720.84;5092919;28;20282;-62
2021/12/19 09:37:43;;;;;;;6.60;5.10;;;;;;;5.77;58.49;99710.00;5099562;28;20562;-63
2021/12/19 09:40:18;;;;;;;8.90;6.47;;;;;;;5.85;57.82;99703.59;5112582;28;20224;-62
2021/12/19 09:42:48;;;;;;;8.40;5.63;;;;;;;5.84;57.02;99704.34;5112516;28;20225;-62
2021/12/19 09:45:15;;;;;;;8.10;5.73;;;;;;;5.77;56.35;99698.13;5112627;28;20649;-62
2021/12/19 09:47:43;;;;;;;13.40;7.40;;;;;;;5.74;57.59;99702.25;5112443;28;20572;-62
2021/12/19 09:50:10;;;;;;;10.70;6.83;;;;;;;5.75;56.49;99703.97;5103921;28;20736;-63
2021/12/19 09:52:38;;;;;;;10.30;6.27;;;;;;;5.81;57.33;99682.16;5108106;28;20289;-62
2021/12/19 09:55:06;;;;;;;8.00;5.77;;;;;;;5.92;57.93;99668.16;5093628;28;20187;-62
2021/12/19 09:57:34;;;;;;;11.60;6.27;;;;;;;6.04;58.27;99675.41;5081246;28;20662;-62
2021/12/19 10:00:01;;;;;;;9.90;6.73;;;;;;;6.20;58.03;99666.63;5080084;28;20226;-62
2021/12/19 10:02:29;;;;;;;16.17;6.67;;;;;;;6.21;57.53;99670.88;5082004;28;20276;-62
2021/12/19 10:04:56;;;;;;;10.33;7.07;;;;;;;6.34;57.30;99657.78;5081740;28;20192;-62
2021/12/19 10:07:28;;;;;;;10.23;8.10;;;;;;;6.41;56.29;99659.72;5079963;28;20191;-62
2021/12/19 10:10:00;;;;;;;9.67;7.07;;;;;;;6.34;56.26;99652.69;5081387;28;20682;-62
2021/12/19 10:12:49;;;;;;;10.20;7.50;;;;;;;6.32;56.89;99650.06;5082436;28;20179;-62
2021/12/19 10:15:22;;;;;;;9.67;6.00;;;;;;;6.42;56.24;99641.06;5091369;28;20612;-62
2021/12/19 10:18:00;;;;;;;9.20;7.43;;;;;;;6.56;56.22;99644.06;5078484;28;20434;-62
2021/12/19 10:20:27;;;;;;;8.83;6.07;;;;;;;6.46;54.94;99642.88;5077778;28;20211;-62
2021/12/19 10:22:54;;;;;;;7.17;6.30;;;;;;;6.49;55.04;99625.13;5091980;28;20198;-62
2021/12/19 10:25:23;;;;;;;8.77;6.73;;;;;;;6.54;54.59;99627.00;5091920;28;20628;-61
2021/12/19 10:27:52;;;;;;;6.40;5.70;;;;;;;6.54;54.27;99631.25;5091576;28;20204;-62
2021/12/19 10:30:24;;;;;;;12.37;6.27;;;;;;;6.44;55.87;99601.13;5091567;28;20274;-62
2021/12/19 10:32:59;;;;;;;9.27;6.83;;;;;;;6.70;55.38;99619.88;5091188;28;20231;-62
2021/12/19 10:35:30;;;;;;;9.97;6.53;;;;;;;6.77;55.73;99621.81;5091422;28;20192;-63
2021/12/19 10:37:58;;;;;;;12.47;7.30;;;;;;;6.76;54.49;99622.63;5091388;28;20199;-62
2021/12/19 10:40:26;;;;;;;11.57;7.43;;;;;;;6.70;54.59;99619.88;5091070;28;20216;-61
2021/12/19 10:42:59;;;;;;;11.85;7.85;;;;;;;6.68;54.99;99609.59;5090398;28;20765;-61
2021/12/19 10:45:34;;;;;;;10.93;7.57;;;;;;;6.77;55.28;99611.59;5091330;28;20192;-61
2021/12/19 10:48:13;;;;;;;12.93;7.53;;;;;;;6.81;54.76;99600.69;5091592;28;20218;-60
2021/12/19 10:50:45;;;;;;;10.87;6.83;;;;;;;6.81;55.29;99595.56;5091494;28;20190;-61
2021/12/19 10:53:13;;;;;;;7.87;6.57;;;;;;;6.78;55.70;99595.47;5091177;28;20274;-61
2021/12/19 10:55:41;;;;;;;10.27;7.60;;;;;;;6.76;55.56;99585.19;5091141;28;20196;-61
2021/12/19 10:58:20;;;;;;;10.13;8.10;;;;;;;6.70;55.83;99564.59;5090779;28;20740;-62
2021/12/19 11:00:58;;;;;;;13.03;8.50;;;;;;;6.88;55.81;99575.38;5090712;28;20309;-61
2021/12/19 11:03:55;;;;;;;9.70;7.00;;;;;;;6.84;55.24;99554.81;5090652;28;20234;-61
2021/12/19 11:06:31;;;;;;;9.80;7.10;;;;;;;6.87;55.85;99550.66;5079067;28;20682;-61
2021/12/19 11:09:00;;;;;;;12.07;8.07;;;;;;;6.94;55.38;99555.16;5089089;28;20581;-60
2021/12/19 11:11:46;;;;;;;10.97;7.90;;;;;;;6.95;55.28;99548.38;5088611;28;20194;-62
2021/12/19 11:14:15;;;;;;;10.47;8.10;;;;;;;6.87;55.74;99537.88;5088843;28;20274;-62
2021/12/19 11:16:44;;;;;;;10.80;8.43;;;;;;;6.87;56.26;99531.91;5089479;28;20278;-62
2021/12/19 11:19:11;;;;;;;12.83;8.67;;;;;;;6.98;56.67;99528.88;5089762;28;20220;-61
2021/12/19 11:21:39;;;;;;;9.50;7.60;;;;;;;6.96;55.95;99520.31;5089651;28;20201;-61
2021/12/19 11:24:08;;;;;;;17.90;9.17;;;;;;;6.96;56.82;99522.88;5089397;28;20194;-61
2021/12/19 11:26:37;;;;;;;9.33;8.00;;;;;;;6.94;55.63;99515.97;5089962;28;20656;-61
2021/12/19 11:29:06;;;;;;;10.93;7.53;;;;;;;6.87;54.92;99501.25;5090070;28;20198;-62
2021/12/19 11:31:34;;;;;;;11.37;7.83;;;;;;;6.87;55.56;99502.13;5089798;28;20268;-61
2021/12/19 11:34:22;;;;;;;14.50;8.10;;;;;;;6.92;54.92;99481.88;5089873;28;20273;-61
2021/12/19 11:36:54;;;;;;;12.83;8.50;;;;;;;7.05;55.06;99484.84;5089948;28;20663;-62
2021/12/19 11:39:25;;;;;;;9.40;7.20;;;;;;;7.11;54.84;99485.00;5089888;28;20225;-62
2021/12/19 11:42:06;;;;;;;10.47;8.00;;;;;;;7.05;54.69;99474.63;5090201;28;20186;-62
2021/12/19 11:44:36;;;;;;;12.90;8.37;;;;;;;7.16;54.97;99462.16;5089789;28;20227;-62
2021/12/19 11:47:09;;;;;;;11.03;8.37;;;;;;;7.17;55.31;99468.13;5089798;28;20575;-61
2021/12/19 11:49:37;;;;;;;10.37;8.03;;;;;;;7.23;54.62;99469.16;5089956;28;20209;-61
2021/12/19 11:52:26;;;;;;;10.47;7.87;;;;;;;7.18;55.10;99457.94;5090073;28;20570;-61
2021/12/19 11:55:24;;;;;;;11.53;7.67;;;;;;;7.25;54.19;99456.44;5090078;28;20200;-62
2021/12/19 11:58:19;;;;;;;11.25;9.25;;;;;;;7.28;54.12;99439.50;5088681;28;20834;-62
2021/12/19 12:00:59;;;;;;;11.97;9.07;;;;;;;7.35;54.16;99435.44;5085423;28;20220;-61
2021/12/19 12:03:50;;;;;;;11.60;8.07;;;;;;;7.36;53.68;99432.91;5089822;28;20703;-62
2021/12/19 12:06:41;;;;;;;9.83;7.37;;;;;;;7.32;52.43;99425.13;5089743;28;20205;-62
2021/12/19 12:09:20;;;;;;;10.73;7.47;;;;;;;7.30;52.73;99427.66;5089646;28;20341;-62
2021/12/19 12:12:23;;;;;;;8.83;6.63;;;;;;;7.27;51.83;99412.22;5089868;28;20239;-61
2021/12/19 12:15:05;;;;;;;10.93;6.83;;;;;;;7.33;52.80;99406.41;5093101;28;20204;-62
2021/12/19 12:17:38;;;;;;;8.70;7.40;;;;;;;7.46;52.87;99408.47;5105372;28;20677;-63
2021/12/19 12:20:29;;;;;;;11.43;8.00;;;;;;;7.43;52.83;99405.84;5108130;28;20224;-62
2021/12/19 12:23:10;;;;;;;13.07;7.37;;;;;;;7.39;51.95;99409.97;5108998;28;20265;-62
2021/12/19 12:25:42;;;;;;;9.67;7.17;;;;;;;7.45;52.09;99399.94;5093949;28;20283;-63
2021/12/19 12:28:10;;;;;;;11.97;7.67;;;;;;;7.49;52.24;99401.75;5108156;28;20194;-62
2021/12/19 12:30:45;;;;;;;15.10;8.40;;;;;;;7.42;52.45;99399.84;5114263;28;20236;-62
2021/12/19 12:33:16;;;;;;;12.63;8.57;;;;;;;7.49;51.94;99396.66;5114152;28;20249;-62
2021/12/19 12:35:47;;;;;;;8.80;7.90;;;;;;;7.58;52.33;99390.91;5114009;28;20192;-62
2021/12/19 12:38:16;;;;;;;10.37;7.90;;;;;;;7.56;54.20;99380.63;5113813;28;20203;-62
2021/12/19 12:40:49;;;;;;;12.33;9.03;;;;;;;7.48;55.26;99377.00;5109897;28;20337;-62